Hlavní strana
METAR-TAF:

METAR-TAF

Letiště :

Rantoul National Aviation Center Airport (Frank Elliott Field)

Rantoul, Illinois, Spojené státy americké

zeměpisná šířka: 40-17-37N, zeměpisná délka: 088-08-33W, výška: 225 m

Aktuální stav počasí

Zpráva byla vytvořena před 29 minutami, v 10:35 UTC
Západoseverozápadní vítr 5 kt
Teplota 0°C
Vlhkost vzduchu 93%
Tlak 1027 hPa
Viditelnost: 16.1 km
Zataženo ve výšce 4000 ft

METAR: KTIP 251035Z AUTO 30005KT 10SM OVC040 00/M01 A3032 RMK AO2 T10031011

Čas: 05:04 (11:04 UTC)


TAF: chybějící

Stav a předpovědi počasí z více než 4 000 letišť (zprávy METAR a TAF).

Červené a žluté tečky na mapě představují dostupné meteorologické stanice.

Když kurzor umístíte na tečku, zobrazí se název stanice.

Pak kliknutím zobrazíte stav a předpověď počasí.

Chcete-li změnit mapu, kliknutím na zelené tlačítko se znaménkem +mapu přiblížíte, kliknutím na zelené tlačítko se znaménkem – mapu oddálíte a kliknutím na zelené šipky přejdete na sousední mapy.


METAR-TAF: